International Virtual Aviation Organisation

Russian Federation and Kazakhstan MCD

 
UAAH 281000Z 26012MPS 6000 BLSN FEW016CB BKN030 M02/M03 Q1029 R05/450245 NOSIG RMK QFE734/0978
QNH:(hPa/inHg/mmHg)1029 / 30.39 / 772
QFE:(hPa/inHg/mmHg)975 / 28.80 / 732
Temperature-2
Dew Point-3
Visibility6000
WeatherBlowing Snow
Cloud CoverFEW (1600);
BKN (3000);
Transition Height900 m./4400 ft.
Transition LevelFL50
SQUAWK